sensor_id;sensor_type;location;lat;lon;timestamp;P1;durP1;ratioP1;P2;durP2;ratioP2
20931;SDS011;10625;49.054;9.348;2022-07-23T00:02:26;13.60;;;9.83;;
20931;SDS011;10625;49.054;9.348;2022-07-23T00:04:53;12.80;;;9.80;;
20931;SDS011;10625;49.054;9.348;2022-07-23T00:07:20;10.33;;;9.13;;
20931;SDS011;10625;49.054;9.348;2022-07-23T00:09:49;9.97;;;9.07;;
20931;SDS011;10625;49.054;9.348;2022-07-23T00:12:16;11.33;;;9.43;;
20931;SDS011;10625;49.054;9.348;2022-07-23T00:14:43;10.17;;;9.17;;
20931;SDS011;10625;49.054;9.348;2022-07-23T00:17:11;10.27;;;8.70;;
20931;SDS011;10625;49.054;9.348;2022-07-23T00:19:38;11.03;;;9.43;;
20931;SDS011;10625;49.054;9.348;2022-07-23T00:22:05;10.87;;;9.70;;
20931;SDS011;10625;49.054;9.348;2022-07-23T00:24:33;10.40;;;9.30;;
20931;SDS011;10625;49.054;9.348;2022-07-23T00:27:00;10.00;;;8.83;;
20931;SDS011;10625;49.054;9.348;2022-07-23T00:29:27;9.60;;;8.60;;
20931;SDS011;10625;49.054;9.348;2022-07-23T00:31:54;9.93;;;8.93;;
20931;SDS011;10625;49.054;9.348;2022-07-23T00:34:22;9.43;;;8.53;;
20931;SDS011;10625;49.054;9.348;2022-07-23T00:36:49;9.50;;;8.57;;
20931;SDS011;10625;49.054;9.348;2022-07-23T00:39:19;10.00;;;8.67;;
20931;SDS011;10625;49.054;9.348;2022-07-23T00:41:47;10.27;;;8.63;;
20931;SDS011;10625;49.054;9.348;2022-07-23T00:44:22;12.57;;;8.07;;
20931;SDS011;10625;49.054;9.348;2022-07-23T00:46:50;13.93;;;8.73;;
20931;SDS011;10625;49.054;9.348;2022-07-23T00:49:20;9.37;;;8.10;;
20931;SDS011;10625;49.054;9.348;2022-07-23T00:51:47;9.53;;;8.53;;
20931;SDS011;10625;49.054;9.348;2022-07-23T00:54:15;9.60;;;7.70;;
20931;SDS011;10625;49.054;9.348;2022-07-23T00:56:43;8.33;;;7.50;;
20931;SDS011;10625;49.054;9.348;2022-07-23T00:59:11;8.87;;;7.30;;
20931;SDS011;10625;49.054;9.348;2022-07-23T01:01:38;9.20;;;7.63;;
20931;SDS011;10625;49.054;9.348;2022-07-23T01:04:06;8.83;;;6.73;;
20931;SDS011;10625;49.054;9.348;2022-07-23T01:06:34;8.33;;;6.93;;
20931;SDS011;10625;49.054;9.348;2022-07-23T01:09:03;10.37;;;7.37;;
20931;SDS011;10625;49.054;9.348;2022-07-23T01:11:31;7.03;;;6.37;;
20931;SDS011;10625;49.054;9.348;2022-07-23T01:13:59;9.20;;;7.40;;
20931;SDS011;10625;49.054;9.348;2022-07-23T01:16:26;8.93;;;7.47;;
20931;SDS011;10625;49.054;9.348;2022-07-23T01:18:53;8.83;;;7.30;;
20931;SDS011;10625;49.054;9.348;2022-07-23T01:21:20;7.53;;;6.73;;
20931;SDS011;10625;49.054;9.348;2022-07-23T01:23:48;7.77;;;6.83;;
20931;SDS011;10625;49.054;9.348;2022-07-23T01:26:15;8.53;;;7.43;;
20931;SDS011;10625;49.054;9.348;2022-07-23T01:28:43;8.97;;;7.67;;
20931;SDS011;10625;49.054;9.348;2022-07-23T01:31:10;10.20;;;8.30;;
20931;SDS011;10625;49.054;9.348;2022-07-23T01:33:38;8.57;;;7.63;;
20931;SDS011;10625;49.054;9.348;2022-07-23T01:36:05;8.97;;;8.07;;
20931;SDS011;10625;49.054;9.348;2022-07-23T01:38:32;7.77;;;6.97;;
20931;SDS011;10625;49.054;9.348;2022-07-23T01:40:59;9.67;;;7.77;;
20931;SDS011;10625;49.054;9.348;2022-07-23T01:43:27;10.80;;;7.43;;
20931;SDS011;10625;49.054;9.348;2022-07-23T01:45:54;9.63;;;8.20;;
20931;SDS011;10625;49.054;9.348;2022-07-23T01:48:21;11.37;;;8.70;;
20931;SDS011;10625;49.054;9.348;2022-07-23T01:50:49;8.77;;;7.93;;
20931;SDS011;10625;49.054;9.348;2022-07-23T01:53:16;9.37;;;7.40;;
20931;SDS011;10625;49.054;9.348;2022-07-23T01:55:43;10.73;;;7.77;;
20931;SDS011;10625;49.054;9.348;2022-07-23T01:58:11;9.57;;;7.97;;
20931;SDS011;10625;49.054;9.348;2022-07-23T02:00:38;9.00;;;7.23;;
20931;SDS011;10625;49.054;9.348;2022-07-23T02:03:05;9.10;;;8.20;;
20931;SDS011;10625;49.054;9.348;2022-07-23T02:05:32;8.00;;;7.30;;
20931;SDS011;10625;49.054;9.348;2022-07-23T02:08:00;10.63;;;7.83;;
20931;SDS011;10625;49.054;9.348;2022-07-23T02:10:27;9.17;;;8.20;;
20931;SDS011;10625;49.054;9.348;2022-07-23T02:12:54;8.90;;;7.80;;
20931;SDS011;10625;49.054;9.348;2022-07-23T02:15:22;7.77;;;7.07;;
20931;SDS011;10625;49.054;9.348;2022-07-23T02:17:49;8.90;;;7.07;;
20931;SDS011;10625;49.054;9.348;2022-07-23T02:20:16;8.33;;;7.47;;
20931;SDS011;10625;49.054;9.348;2022-07-23T02:22:44;7.87;;;7.07;;
20931;SDS011;10625;49.054;9.348;2022-07-23T02:25:11;9.13;;;7.47;;
20931;SDS011;10625;49.054;9.348;2022-07-23T02:27:38;8.40;;;7.60;;
20931;SDS011;10625;49.054;9.348;2022-07-23T02:30:06;7.83;;;7.03;;
20931;SDS011;10625;49.054;9.348;2022-07-23T02:32:33;8.50;;;7.33;;
20931;SDS011;10625;49.054;9.348;2022-07-23T02:35:02;9.03;;;7.73;;
20931;SDS011;10625;49.054;9.348;2022-07-23T02:37:29;9.73;;;7.80;;
20931;SDS011;10625;49.054;9.348;2022-07-23T02:39:56;9.37;;;7.50;;
20931;SDS011;10625;49.054;9.348;2022-07-23T02:42:24;9.57;;;7.90;;
20931;SDS011;10625;49.054;9.348;2022-07-23T02:44:51;8.93;;;7.50;;
20931;SDS011;10625;49.054;9.348;2022-07-23T02:47:19;8.27;;;7.47;;
20931;SDS011;10625;49.054;9.348;2022-07-23T02:49:46;10.53;;;7.90;;
20931;SDS011;10625;49.054;9.348;2022-07-23T02:52:13;8.60;;;7.80;;
20931;SDS011;10625;49.054;9.348;2022-07-23T02:54:41;9.00;;;8.10;;
20931;SDS011;10625;49.054;9.348;2022-07-23T02:57:08;8.47;;;6.63;;
20931;SDS011;10625;49.054;9.348;2022-07-23T02:59:35;10.93;;;8.03;;
20931;SDS011;10625;49.054;9.348;2022-07-23T03:02:02;10.83;;;8.00;;
20931;SDS011;10625;49.054;9.348;2022-07-23T03:04:30;9.67;;;8.03;;
20931;SDS011;10625;49.054;9.348;2022-07-23T03:06:57;9.33;;;7.73;;
20931;SDS011;10625;49.054;9.348;2022-07-23T03:09:24;11.13;;;8.27;;
20931;SDS011;10625;49.054;9.348;2022-07-23T03:11:51;7.73;;;6.70;;
20931;SDS011;10625;49.054;9.348;2022-07-23T03:14:19;10.93;;;7.97;;
20931;SDS011;10625;49.054;9.348;2022-07-23T03:16:46;9.70;;;8.00;;
20931;SDS011;10625;49.054;9.348;2022-07-23T03:19:15;8.53;;;7.50;;
20931;SDS011;10625;49.054;9.348;2022-07-23T03:21:42;11.10;;;8.23;;
20931;SDS011;10625;49.054;9.348;2022-07-23T03:24:09;9.50;;;8.00;;
20931;SDS011;10625;49.054;9.348;2022-07-23T03:26:37;10.97;;;8.13;;
20931;SDS011;10625;49.054;9.348;2022-07-23T03:29:04;9.40;;;8.40;;
20931;SDS011;10625;49.054;9.348;2022-07-23T03:31:31;8.27;;;7.47;;
20931;SDS011;10625;49.054;9.348;2022-07-23T03:33:59;9.10;;;8.10;;
20931;SDS011;10625;49.054;9.348;2022-07-23T03:36:26;7.90;;;7.17;;
20931;SDS011;10625;49.054;9.348;2022-07-23T03:38:53;9.37;;;8.07;;
20931;SDS011;10625;49.054;9.348;2022-07-23T03:41:21;10.57;;;9.20;;
20931;SDS011;10625;49.054;9.348;2022-07-23T03:43:48;8.40;;;7.47;;
20931;SDS011;10625;49.054;9.348;2022-07-23T03:46:15;11.20;;;8.90;;
20931;SDS011;10625;49.054;9.348;2022-07-23T03:48:43;8.73;;;7.67;;
20931;SDS011;10625;49.054;9.348;2022-07-23T03:51:10;9.37;;;7.80;;
20931;SDS011;10625;49.054;9.348;2022-07-23T03:53:37;7.57;;;6.87;;
20931;SDS011;10625;49.054;9.348;2022-07-23T03:56:04;9.53;;;7.73;;
20931;SDS011;10625;49.054;9.348;2022-07-23T03:58:32;8.50;;;7.57;;
20931;SDS011;10625;49.054;9.348;2022-07-23T04:00:59;10.90;;;7.93;;
20931;SDS011;10625;49.054;9.348;2022-07-23T04:03:26;10.00;;;9.00;;
20931;SDS011;10625;49.054;9.348;2022-07-23T04:05:53;9.90;;;8.07;;
20931;SDS011;10625;49.054;9.348;2022-07-23T04:08:21;10.40;;;8.87;;
20931;SDS011;10625;49.054;9.348;2022-07-23T04:10:48;9.77;;;8.23;;
20931;SDS011;10625;49.054;9.348;2022-07-23T04:13:15;9.47;;;8.47;;
20931;SDS011;10625;49.054;9.348;2022-07-23T04:15:42;9.23;;;8.33;;
20931;SDS011;10625;49.054;9.348;2022-07-23T04:18:10;10.40;;;8.67;;
20931;SDS011;10625;49.054;9.348;2022-07-23T04:20:37;10.17;;;9.00;;
20931;SDS011;10625;49.054;9.348;2022-07-23T04:23:04;10.70;;;8.57;;
20931;SDS011;10625;49.054;9.348;2022-07-23T04:25:32;10.13;;;9.17;;
20931;SDS011;10625;49.054;9.348;2022-07-23T04:27:59;9.53;;;8.53;;
20931;SDS011;10625;49.054;9.348;2022-07-23T04:30:26;8.53;;;7.20;;
20931;SDS011;10625;49.054;9.348;2022-07-23T04:32:53;9.97;;;8.07;;
20931;SDS011;10625;49.054;9.348;2022-07-23T04:35:21;10.10;;;8.70;;
20931;SDS011;10625;49.054;9.348;2022-07-23T04:37:48;9.33;;;8.33;;
20931;SDS011;10625;49.054;9.348;2022-07-23T04:40:15;8.90;;;7.97;;
20931;SDS011;10625;49.054;9.348;2022-07-23T04:42:42;9.17;;;8.00;;
20931;SDS011;10625;49.054;9.348;2022-07-23T04:45:10;10.83;;;9.17;;
20931;SDS011;10625;49.054;9.348;2022-07-23T04:47:37;9.60;;;8.67;;
20931;SDS011;10625;49.054;9.348;2022-07-23T04:50:04;10.40;;;8.60;;
20931;SDS011;10625;49.054;9.348;2022-07-23T04:52:32;9.23;;;8.33;;
20931;SDS011;10625;49.054;9.348;2022-07-23T04:54:59;10.67;;;9.00;;
20931;SDS011;10625;49.054;9.348;2022-07-23T04:57:27;10.73;;;8.67;;
20931;SDS011;10625;49.054;9.348;2022-07-23T04:59:54;10.40;;;8.13;;
20931;SDS011;10625;49.054;9.348;2022-07-23T05:02:21;9.93;;;8.10;;
20931;SDS011;10625;49.054;9.348;2022-07-23T05:04:48;10.07;;;8.93;;
20931;SDS011;10625;49.054;9.348;2022-07-23T05:07:16;9.50;;;8.40;;
20931;SDS011;10625;49.054;9.348;2022-07-23T05:09:43;10.30;;;8.17;;
20931;SDS011;10625;49.054;9.348;2022-07-23T05:12:10;9.17;;;7.37;;
20931;SDS011;10625;49.054;9.348;2022-07-23T05:14:37;9.93;;;8.93;;
20931;SDS011;10625;49.054;9.348;2022-07-23T05:17:05;7.97;;;7.17;;
20931;SDS011;10625;49.054;9.348;2022-07-23T05:19:34;8.63;;;7.80;;
20931;SDS011;10625;49.054;9.348;2022-07-23T05:22:01;8.50;;;7.73;;
20931;SDS011;10625;49.054;9.348;2022-07-23T05:24:28;9.63;;;8.10;;
20931;SDS011;10625;49.054;9.348;2022-07-23T05:26:56;8.93;;;7.97;;
20931;SDS011;10625;49.054;9.348;2022-07-23T05:29:23;9.13;;;8.20;;
20931;SDS011;10625;49.054;9.348;2022-07-23T05:31:50;9.93;;;8.30;;
20931;SDS011;10625;49.054;9.348;2022-07-23T05:34:17;8.13;;;7.33;;
20931;SDS011;10625;49.054;9.348;2022-07-23T05:36:45;9.47;;;8.00;;
20931;SDS011;10625;49.054;9.348;2022-07-23T05:39:12;8.77;;;7.43;;
20931;SDS011;10625;49.054;9.348;2022-07-23T05:41:39;8.57;;;7.23;;
20931;SDS011;10625;49.054;9.348;2022-07-23T05:44:06;9.63;;;7.87;;
20931;SDS011;10625;49.054;9.348;2022-07-23T05:46:34;9.33;;;7.17;;
20931;SDS011;10625;49.054;9.348;2022-07-23T05:49:01;8.07;;;7.37;;
20931;SDS011;10625;49.054;9.348;2022-07-23T05:51:28;9.07;;;8.03;;
20931;SDS011;10625;49.054;9.348;2022-07-23T05:53:56;10.00;;;8.00;;
20931;SDS011;10625;49.054;9.348;2022-07-23T05:56:23;8.73;;;7.93;;
20931;SDS011;10625;49.054;9.348;2022-07-23T05:58:50;9.10;;;8.23;;
20931;SDS011;10625;49.054;9.348;2022-07-23T06:01:17;9.30;;;8.20;;
20931;SDS011;10625;49.054;9.348;2022-07-23T06:03:45;8.87;;;7.97;;
20931;SDS011;10625;49.054;9.348;2022-07-23T06:06:12;9.60;;;7.60;;
20931;SDS011;10625;49.054;9.348;2022-07-23T06:08:39;10.83;;;8.10;;
20931;SDS011;10625;49.054;9.348;2022-07-23T06:11:06;9.50;;;8.40;;
20931;SDS011;10625;49.054;9.348;2022-07-23T06:13:34;11.03;;;9.07;;
20931;SDS011;10625;49.054;9.348;2022-07-23T06:16:01;12.33;;;9.13;;
20931;SDS011;10625;49.054;9.348;2022-07-23T06:18:28;10.40;;;9.03;;
20931;SDS011;10625;49.054;9.348;2022-07-23T06:20:56;11.20;;;9.90;;
20931;SDS011;10625;49.054;9.348;2022-07-23T06:23:23;13.47;;;10.67;;
20931;SDS011;10625;49.054;9.348;2022-07-23T06:25:50;12.17;;;10.30;;
20931;SDS011;10625;49.054;9.348;2022-07-23T06:28:18;12.73;;;11.43;;
20931;SDS011;10625;49.054;9.348;2022-07-23T06:30:45;12.23;;;10.33;;
20931;SDS011;10625;49.054;9.348;2022-07-23T06:33:12;12.43;;;10.37;;
20931;SDS011;10625;49.054;9.348;2022-07-23T06:35:40;12.57;;;10.83;;
20931;SDS011;10625;49.054;9.348;2022-07-23T06:38:07;12.07;;;10.70;;
20931;SDS011;10625;49.054;9.348;2022-07-23T06:40:34;12.97;;;10.00;;
20931;SDS011;10625;49.054;9.348;2022-07-23T06:43:02;11.43;;;10.20;;
20931;SDS011;10625;49.054;9.348;2022-07-23T06:45:29;11.10;;;9.70;;
20931;SDS011;10625;49.054;9.348;2022-07-23T06:47:56;9.83;;;8.83;;
20931;SDS011;10625;49.054;9.348;2022-07-23T06:50:24;11.67;;;10.03;;
20931;SDS011;10625;49.054;9.348;2022-07-23T06:52:51;12.43;;;10.00;;
20931;SDS011;10625;49.054;9.348;2022-07-23T06:55:18;10.47;;;9.40;;
20931;SDS011;10625;49.054;9.348;2022-07-23T06:57:45;10.90;;;9.87;;
20931;SDS011;10625;49.054;9.348;2022-07-23T07:00:13;13.90;;;10.10;;
20931;SDS011;10625;49.054;9.348;2022-07-23T07:02:40;13.27;;;10.07;;
20931;SDS011;10625;49.054;9.348;2022-07-23T07:05:07;11.30;;;9.53;;
20931;SDS011;10625;49.054;9.348;2022-07-23T07:07:35;11.63;;;9.33;;
20931;SDS011;10625;49.054;9.348;2022-07-23T07:10:02;12.53;;;9.77;;
20931;SDS011;10625;49.054;9.348;2022-07-23T07:12:30;14.07;;;11.47;;
20931;SDS011;10625;49.054;9.348;2022-07-23T07:14:57;14.43;;;12.50;;
20931;SDS011;10625;49.054;9.348;2022-07-23T07:17:24;15.23;;;12.10;;
20931;SDS011;10625;49.054;9.348;2022-07-23T07:19:51;19.00;;;15.17;;
20931;SDS011;10625;49.054;9.348;2022-07-23T07:22:19;13.73;;;11.10;;
20931;SDS011;10625;49.054;9.348;2022-07-23T07:24:46;15.27;;;11.77;;
20931;SDS011;10625;49.054;9.348;2022-07-23T07:27:13;15.37;;;12.07;;
20931;SDS011;10625;49.054;9.348;2022-07-23T07:29:40;15.17;;;12.37;;
20931;SDS011;10625;49.054;9.348;2022-07-23T07:32:08;27.17;;;16.40;;
20931;SDS011;10625;49.054;9.348;2022-07-23T07:34:35;24.50;;;18.70;;
20931;SDS011;10625;49.054;9.348;2022-07-23T07:37:02;23.83;;;18.50;;
20931;SDS011;10625;49.054;9.348;2022-07-23T07:39:29;38.83;;;19.87;;
20931;SDS011;10625;49.054;9.348;2022-07-23T07:41:57;23.27;;;18.40;;
20931;SDS011;10625;49.054;9.348;2022-07-23T07:44:24;25.03;;;18.40;;
20931;SDS011;10625;49.054;9.348;2022-07-23T07:46:51;24.00;;;17.03;;
20931;SDS011;10625;49.054;9.348;2022-07-23T07:49:19;52.83;;;39.93;;
20931;SDS011;10625;49.054;9.348;2022-07-23T07:51:46;17.97;;;13.67;;
20931;SDS011;10625;49.054;9.348;2022-07-23T07:54:13;18.83;;;13.93;;
20931;SDS011;10625;49.054;9.348;2022-07-23T07:56:41;15.37;;;13.73;;
20931;SDS011;10625;49.054;9.348;2022-07-23T07:59:08;17.33;;;14.37;;
20931;SDS011;10625;49.054;9.348;2022-07-23T08:01:37;17.07;;;13.17;;
20931;SDS011;10625;49.054;9.348;2022-07-23T08:04:04;12.83;;;11.10;;
20931;SDS011;10625;49.054;9.348;2022-07-23T08:06:31;13.97;;;12.30;;
20931;SDS011;10625;49.054;9.348;2022-07-23T08:08:58;15.63;;;11.63;;
20931;SDS011;10625;49.054;9.348;2022-07-23T08:11:26;13.77;;;10.80;;
20931;SDS011;10625;49.054;9.348;2022-07-23T08:13:53;12.83;;;11.53;;
20931;SDS011;10625;49.054;9.348;2022-07-23T08:16:20;12.63;;;11.30;;
20931;SDS011;10625;49.054;9.348;2022-07-23T08:18:47;14.20;;;11.10;;
20931;SDS011;10625;49.054;9.348;2022-07-23T08:21:15;13.23;;;11.50;;
20931;SDS011;10625;49.054;9.348;2022-07-23T08:23:42;14.63;;;11.27;;
20931;SDS011;10625;49.054;9.348;2022-07-23T08:26:09;12.90;;;10.90;;
20931;SDS011;10625;49.054;9.348;2022-07-23T08:28:37;12.20;;;10.10;;
20931;SDS011;10625;49.054;9.348;2022-07-23T08:31:04;15.37;;;13.07;;
20931;SDS011;10625;49.054;9.348;2022-07-23T08:33:31;14.50;;;12.43;;
20931;SDS011;10625;49.054;9.348;2022-07-23T08:35:59;14.77;;;11.50;;
20931;SDS011;10625;49.054;9.348;2022-07-23T08:38:26;12.40;;;10.40;;
20931;SDS011;10625;49.054;9.348;2022-07-23T08:40:55;13.13;;;11.90;;
20931;SDS011;10625;49.054;9.348;2022-07-23T08:43:31;13.97;;;12.57;;
20931;SDS011;10625;49.054;9.348;2022-07-23T08:45:53;15.27;;;11.53;;
20931;SDS011;10625;49.054;9.348;2022-07-23T08:48:23;14.03;;;11.40;;
20931;SDS011;10625;49.054;9.348;2022-07-23T08:50:51;14.80;;;12.17;;
20931;SDS011;10625;49.054;9.348;2022-07-23T08:53:20;18.80;;;16.77;;
20931;SDS011;10625;49.054;9.348;2022-07-23T08:55:49;17.60;;;14.17;;
20931;SDS011;10625;49.054;9.348;2022-07-23T08:58:16;13.70;;;12.30;;
20931;SDS011;10625;49.054;9.348;2022-07-23T09:00:44;13.33;;;11.93;;
20931;SDS011;10625;49.054;9.348;2022-07-23T09:03:16;15.33;;;13.60;;
20931;SDS011;10625;49.054;9.348;2022-07-23T09:05:41;14.87;;;13.37;;
20931;SDS011;10625;49.054;9.348;2022-07-23T09:08:12;15.93;;;14.17;;
20931;SDS011;10625;49.054;9.348;2022-07-23T09:13:25;15.40;;;13.77;;
20931;SDS011;10625;49.054;9.348;2022-07-23T09:15:53;16.27;;;13.30;;
20931;SDS011;10625;49.054;9.348;2022-07-23T09:29:16;11.07;;;9.90;;
20931;SDS011;10625;49.054;9.348;2022-07-23T09:31:47;11.50;;;9.67;;
20931;SDS011;10625;49.054;9.348;2022-07-23T09:34:17;10.47;;;8.93;;
20931;SDS011;10625;49.054;9.348;2022-07-23T09:36:45;9.50;;;8.60;;
20931;SDS011;10625;49.054;9.348;2022-07-23T09:39:13;9.53;;;8.53;;
20931;SDS011;10625;49.054;9.348;2022-07-23T09:41:44;9.20;;;8.20;;
20931;SDS011;10625;49.054;9.348;2022-07-23T09:44:17;9.23;;;8.33;;
20931;SDS011;10625;49.054;9.348;2022-07-23T09:46:40;8.87;;;7.97;;
20931;SDS011;10625;49.054;9.348;2022-07-23T09:49:19;7.70;;;7.00;;
20931;SDS011;10625;49.054;9.348;2022-07-23T09:51:43;7.43;;;6.73;;
20931;SDS011;10625;49.054;9.348;2022-07-23T09:54:22;7.70;;;6.87;;
20931;SDS011;10625;49.054;9.348;2022-07-23T09:56:51;8.73;;;7.33;;
20931;SDS011;10625;49.054;9.348;2022-07-23T09:59:18;8.67;;;7.70;;
20931;SDS011;10625;49.054;9.348;2022-07-23T10:01:47;8.67;;;7.63;;
20931;SDS011;10625;49.054;9.348;2022-07-23T10:04:14;7.77;;;7.03;;
20931;SDS011;10625;49.054;9.348;2022-07-23T10:06:42;7.97;;;6.50;;
20931;SDS011;10625;49.054;9.348;2022-07-23T10:09:10;9.40;;;7.90;;
20931;SDS011;10625;49.054;9.348;2022-07-23T10:11:39;7.43;;;6.73;;
20931;SDS011;10625;49.054;9.348;2022-07-23T10:14:06;8.90;;;8.17;;
20931;SDS011;10625;49.054;9.348;2022-07-23T10:16:33;8.30;;;7.50;;
20931;SDS011;10625;49.054;9.348;2022-07-23T10:19:01;10.13;;;9.23;;
20931;SDS011;10625;49.054;9.348;2022-07-23T10:21:37;10.43;;;9.40;;
20931;SDS011;10625;49.054;9.348;2022-07-23T10:24:10;8.33;;;7.37;;
20931;SDS011;10625;49.054;9.348;2022-07-23T10:26:38;7.20;;;6.50;;
20931;SDS011;10625;49.054;9.348;2022-07-23T10:31:56;7.43;;;6.73;;
20931;SDS011;10625;49.054;9.348;2022-07-23T10:36:55;7.70;;;7.00;;
20931;SDS011;10625;49.054;9.348;2022-07-23T10:39:24;7.50;;;6.80;;
20931;SDS011;10625;49.054;9.348;2022-07-23T10:41:51;7.93;;;7.13;;
20931;SDS011;10625;49.054;9.348;2022-07-23T10:44:23;7.90;;;6.57;;
20931;SDS011;10625;49.054;9.348;2022-07-23T10:46:56;7.60;;;6.97;;
20931;SDS011;10625;49.054;9.348;2022-07-23T10:49:35;8.33;;;7.37;;
20931;SDS011;10625;49.054;9.348;2022-07-23T10:54:44;8.50;;;7.70;;
20931;SDS011;10625;49.054;9.348;2022-07-23T10:57:12;9.97;;;7.13;;
20931;SDS011;10625;49.054;9.348;2022-07-23T11:02:28;8.33;;;7.03;;
20931;SDS011;10625;49.054;9.348;2022-07-23T11:04:58;7.93;;;6.97;;
20931;SDS011;10625;49.054;9.348;2022-07-23T11:07:24;7.30;;;6.60;;
20931;SDS011;10625;49.054;9.348;2022-07-23T11:09:51;7.80;;;6.67;;
20931;SDS011;10625;49.054;9.348;2022-07-23T11:15:03;7.70;;;7.00;;
20931;SDS011;10625;49.054;9.348;2022-07-23T11:17:30;7.80;;;7.00;;
20931;SDS011;10625;49.054;9.348;2022-07-23T11:22:40;8.50;;;7.67;;
20931;SDS011;10625;49.054;9.348;2022-07-23T11:25:08;6.97;;;5.77;;
20931;SDS011;10625;49.054;9.348;2022-07-23T11:27:39;7.03;;;6.33;;
20931;SDS011;10625;49.054;9.348;2022-07-23T11:30:06;8.30;;;6.37;;
20931;SDS011;10625;49.054;9.348;2022-07-23T11:32:35;7.43;;;6.40;;
20931;SDS011;10625;49.054;9.348;2022-07-23T11:35:26;6.30;;;5.70;;
20931;SDS011;10625;49.054;9.348;2022-07-23T11:37:35;8.17;;;6.53;;
20931;SDS011;10625;49.054;9.348;2022-07-23T11:40:04;7.40;;;6.70;;
20931;SDS011;10625;49.054;9.348;2022-07-23T11:42:31;6.73;;;6.10;;
20931;SDS011;10625;49.054;9.348;2022-07-23T11:44:59;6.90;;;6.30;;
20931;SDS011;10625;49.054;9.348;2022-07-23T11:47:26;7.20;;;6.53;;
20931;SDS011;10625;49.054;9.348;2022-07-23T11:49:54;7.77;;;6.97;;
20931;SDS011;10625;49.054;9.348;2022-07-23T11:52:22;8.13;;;7.37;;
20931;SDS011;10625;49.054;9.348;2022-07-23T11:54:51;7.67;;;6.97;;
20931;SDS011;10625;49.054;9.348;2022-07-23T11:57:18;8.13;;;7.30;;
20931;SDS011;10625;49.054;9.348;2022-07-23T11:59:47;10.80;;;9.77;;
20931;SDS011;10625;49.054;9.348;2022-07-23T12:02:15;8.00;;;7.30;;
20931;SDS011;10625;49.054;9.348;2022-07-23T12:04:43;8.97;;;8.07;;
20931;SDS011;10625;49.054;9.348;2022-07-23T12:09:56;7.73;;;7.03;;
20931;SDS011;10625;49.054;9.348;2022-07-23T12:12:24;7.70;;;6.90;;
20931;SDS011;10625;49.054;9.348;2022-07-23T12:14:52;8.10;;;7.30;;
20931;SDS011;10625;49.054;9.348;2022-07-23T12:17:20;8.40;;;7.53;;
20931;SDS011;10625;49.054;9.348;2022-07-23T12:19:47;9.10;;;7.33;;
20931;SDS011;10625;49.054;9.348;2022-07-23T12:22:15;7.53;;;6.83;;
20931;SDS011;10625;49.054;9.348;2022-07-23T12:24:52;8.00;;;7.20;;
20931;SDS011;10625;49.054;9.348;2022-07-23T12:27:22;8.10;;;7.20;;
20931;SDS011;10625;49.054;9.348;2022-07-23T12:29:49;7.73;;;6.97;;
20931;SDS011;10625;49.054;9.348;2022-07-23T12:32:18;7.87;;;7.17;;
20931;SDS011;10625;49.054;9.348;2022-07-23T12:34:45;8.47;;;7.10;;
20931;SDS011;10625;49.054;9.348;2022-07-23T12:39:56;9.53;;;8.57;;
20931;SDS011;10625;49.054;9.348;2022-07-23T12:42:24;8.37;;;7.67;;
20931;SDS011;10625;49.054;9.348;2022-07-23T12:45:07;8.60;;;7.80;;
20931;SDS011;10625;49.054;9.348;2022-07-23T12:52:43;7.33;;;6.60;;
20931;SDS011;10625;49.054;9.348;2022-07-23T12:55:26;12.27;;;7.70;;
20931;SDS011;10625;49.054;9.348;2022-07-23T12:57:45;7.13;;;6.43;;
20931;SDS011;10625;49.054;9.348;2022-07-23T13:00:13;8.00;;;6.63;;
20931;SDS011;10625;49.054;9.348;2022-07-23T13:02:45;7.90;;;7.10;;
20931;SDS011;10625;49.054;9.348;2022-07-23T13:05:12;9.60;;;7.43;;
20931;SDS011;10625;49.054;9.348;2022-07-23T13:07:40;7.13;;;6.50;;
20931;SDS011;10625;49.054;9.348;2022-07-23T13:10:07;8.97;;;6.90;;
20931;SDS011;10625;49.054;9.348;2022-07-23T13:12:35;8.37;;;6.80;;
20931;SDS011;10625;49.054;9.348;2022-07-23T13:15:02;7.40;;;6.70;;
20931;SDS011;10625;49.054;9.348;2022-07-23T13:17:29;7.57;;;6.87;;
20931;SDS011;10625;49.054;9.348;2022-07-23T13:19:57;8.60;;;6.97;;
20931;SDS011;10625;49.054;9.348;2022-07-23T13:22:24;8.27;;;6.80;;
20931;SDS011;10625;49.054;9.348;2022-07-23T13:24:51;7.67;;;6.97;;
20931;SDS011;10625;49.054;9.348;2022-07-23T13:27:19;7.17;;;6.47;;
20931;SDS011;10625;49.054;9.348;2022-07-23T13:29:46;6.93;;;6.23;;
20931;SDS011;10625;49.054;9.348;2022-07-23T13:32:14;7.53;;;6.83;;
20931;SDS011;10625;49.054;9.348;2022-07-23T13:34:41;7.20;;;6.57;;
20931;SDS011;10625;49.054;9.348;2022-07-23T13:37:09;6.83;;;6.20;;
20931;SDS011;10625;49.054;9.348;2022-07-23T13:39:36;7.30;;;6.67;;
20931;SDS011;10625;49.054;9.348;2022-07-23T13:42:03;6.97;;;6.37;;
20931;SDS011;10625;49.054;9.348;2022-07-23T13:44:30;7.60;;;6.77;;
20931;SDS011;10625;49.054;9.348;2022-07-23T13:46:58;8.83;;;6.90;;
20931;SDS011;10625;49.054;9.348;2022-07-23T13:49:25;8.07;;;7.27;;
20931;SDS011;10625;49.054;9.348;2022-07-23T13:51:53;7.20;;;6.60;;
20931;SDS011;10625;49.054;9.348;2022-07-23T13:54:20;7.13;;;6.53;;
20931;SDS011;10625;49.054;9.348;2022-07-23T13:56:47;8.90;;;7.00;;
20931;SDS011;10625;49.054;9.348;2022-07-23T13:59:15;7.57;;;6.13;;
20931;SDS011;10625;49.054;9.348;2022-07-23T14:01:43;6.93;;;6.33;;
20931;SDS011;10625;49.054;9.348;2022-07-23T14:04:10;7.53;;;6.57;;
20931;SDS011;10625;49.054;9.348;2022-07-23T14:06:37;7.87;;;7.10;;
20931;SDS011;10625;49.054;9.348;2022-07-23T14:09:05;8.83;;;7.33;;
20931;SDS011;10625;49.054;9.348;2022-07-23T14:11:32;8.07;;;7.03;;
20931;SDS011;10625;49.054;9.348;2022-07-23T14:13:59;7.20;;;6.50;;
20931;SDS011;10625;49.054;9.348;2022-07-23T14:16:27;7.37;;;6.77;;
20931;SDS011;10625;49.054;9.348;2022-07-23T14:18:54;7.90;;;7.10;;
20931;SDS011;10625;49.054;9.348;2022-07-23T14:21:21;7.57;;;6.90;;
20931;SDS011;10625;49.054;9.348;2022-07-23T14:23:49;8.40;;;7.13;;
20931;SDS011;10625;49.054;9.348;2022-07-23T14:26:16;8.47;;;7.67;;
20931;SDS011;10625;49.054;9.348;2022-07-23T14:28:43;11.30;;;10.20;;
20931;SDS011;10625;49.054;9.348;2022-07-23T14:31:10;7.93;;;7.20;;
20931;SDS011;10625;49.054;9.348;2022-07-23T14:33:38;8.40;;;7.63;;
20931;SDS011;10625;49.054;9.348;2022-07-23T14:36:05;8.17;;;7.50;;
20931;SDS011;10625;49.054;9.348;2022-07-23T14:38:32;7.73;;;7.00;;
20931;SDS011;10625;49.054;9.348;2022-07-23T14:41:00;8.53;;;7.07;;
20931;SDS011;10625;49.054;9.348;2022-07-23T14:43:27;8.33;;;7.50;;
20931;SDS011;10625;49.054;9.348;2022-07-23T14:45:54;7.33;;;6.50;;
20931;SDS011;10625;49.054;9.348;2022-07-23T14:48:21;8.10;;;7.40;;
20931;SDS011;10625;49.054;9.348;2022-07-23T14:50:49;7.70;;;7.00;;
20931;SDS011;10625;49.054;9.348;2022-07-23T14:53:16;10.87;;;7.60;;
20931;SDS011;10625;49.054;9.348;2022-07-23T14:55:43;8.17;;;7.37;;
20931;SDS011;10625;49.054;9.348;2022-07-23T14:58:10;8.33;;;7.53;;
20931;SDS011;10625;49.054;9.348;2022-07-23T15:00:38;7.90;;;7.30;;
20931;SDS011;10625;49.054;9.348;2022-07-23T15:03:05;7.47;;;6.77;;
20931;SDS011;10625;49.054;9.348;2022-07-23T15:05:32;7.40;;;6.80;;
20931;SDS011;10625;49.054;9.348;2022-07-23T15:08:00;8.80;;;7.90;;
20931;SDS011;10625;49.054;9.348;2022-07-23T15:10:27;8.43;;;7.30;;
20931;SDS011;10625;49.054;9.348;2022-07-23T15:12:54;8.30;;;7.60;;
20931;SDS011;10625;49.054;9.348;2022-07-23T15:15:21;8.63;;;7.83;;
20931;SDS011;10625;49.054;9.348;2022-07-23T15:17:49;8.53;;;7.73;;
20931;SDS011;10625;49.054;9.348;2022-07-23T15:20:16;9.07;;;8.17;;
20931;SDS011;10625;49.054;9.348;2022-07-23T15:22:43;8.47;;;7.67;;
20931;SDS011;10625;49.054;9.348;2022-07-23T15:25:11;8.67;;;7.47;;